MMTJ/TIJ METAR and TAF weather

Enter ICAO airport designator
Station Type Date Time Source
MMTJ METAR 2019/05/20 10:40 UTC NOAA

MMTJ 201040Z 28004KT 8SM SCT020 12/11 A2992 RMK 8/400


Station Type Date Time Source
MMTJ Decoded METAR 2019/05/20 10:40 UTC NOAA

Tijuana International Airport , Mexico (MMTJ) 32-33N 116-58W
May 20, 2019 - 06:40 AM EDT / 2019.05.20 1040 UTC
Wind: from the W (280 degrees) at 5 MPH (4 KT):0
Visibility: 8 mile(s):0
Sky conditions: partly cloudy
Temperature: 53 F (12 C)
Dew Point: 51 F (11 C)
Relative Humidity: 93%
Pressure (altimeter): 29.92 in. Hg (1013 hPa)
ob: MMTJ 201040Z 28004KT 8SM SCT020 12/11 A2992 RMK 8/400
cycle: 10

Station Type Date Time Source
MMTJ TAF 2019/05/20 12:36 UTC NOAA

TAF MMTJ 201029Z 2012/2118 26007KT P6SM BKN020 TX17/2022Z TN12/2012Z
TEMPO 2013/2017 5SM -RA
FM201800 28015KT P6SM SCT020 SCT080 BKN200
FM210600 26004KT 6SM HZ SCT020 SCT200
BECMG 2110/2112 22004KT

Example: see airport list